Time;durP1;ratioP1;P1;durP2;ratioP2;P2;SDS_P1;SDS_P2;PMS_P1;PMS_P2;Temp;Humidity;BMP_temperature;BMP_pressure;BME280_temperature;BME280_humidity;BME280_pressure;Samples;Min_cycle;Max_cycle;Signal;HPM_P1;HPM_P2
2022/12/26 00:00:00;;;;;;;9.27;8.27;;;11.00;99.90;;;;;;5054531;28;20211;-87
2022/12/26 00:02:27;;;;;;;9.73;8.73;;;10.90;99.90;;;;;;5054753;28;20554;-88
2022/12/26 00:04:54;;;;;;;11.68;10.63;;;11.00;99.90;;;;;;5053056;28;20424;-87
2022/12/26 00:07:22;;;;;;;10.57;9.57;;;11.00;99.90;;;;;;5054805;28;20215;-87
2022/12/26 00:09:50;;;;;;;9.83;8.83;;;10.90;99.90;;;;;;5055015;28;20189;-87
2022/12/26 00:12:36;;;;;;;9.43;8.53;;;11.00;99.90;;;;;;5055525;28;20242;-91
2022/12/26 00:16:02;;;;;;;9.10;8.20;;;10.80;99.90;;;;;;5062872;28;20203;-93
2022/12/26 00:21:58;;;;;;;9.00;8.20;;;10.70;99.90;;;;;;5173055;22;20234;-91
2022/12/26 00:24:55;;;;;;;9.03;8.17;;;10.70;99.90;;;;;;5081032;28;20182;-94
2022/12/26 00:27:24;;;;;;;8.83;8.03;;;10.60;99.90;;;;;;5067453;28;20210;-92
2022/12/26 00:29:53;;;;;;;9.17;8.37;;;10.60;99.90;;;;;;5059188;28;20663;-94
2022/12/26 00:32:19;;;;;;;8.53;7.73;;;10.70;99.90;;;;;;5059055;28;20321;-93
2022/12/26 00:34:47;;;;;;;8.23;7.53;;;10.60;99.90;;;;;;5057451;28;20226;-96
2022/12/26 00:37:15;;;;;;;8.70;7.87;;;10.60;99.90;;;;;;5057807;28;20206;-94
2022/12/26 00:39:42;;;;;;;8.73;7.93;;;10.60;99.90;;;;;;5058391;28;20226;-93
2022/12/26 00:42:09;;;;;;;8.13;7.33;;;10.60;99.90;;;;;;5057759;28;20289;-95
2022/12/26 00:44:36;;;;;;;8.63;7.40;;;10.60;99.90;;;;;;5057523;28;20207;-93
2022/12/26 00:47:20;;;;;;;7.67;7.03;;;10.70;99.90;;;;;;5057776;28;20295;-94
2022/12/26 00:49:47;;;;;;;7.60;6.90;;;10.70;99.90;;;;;;5057989;28;20252;-93
2022/12/26 00:52:15;;;;;;;7.50;6.90;;;10.60;99.90;;;;;;5057761;28;20276;-94
2022/12/26 00:54:42;;;;;;;7.30;6.70;;;10.60;99.90;;;;;;5057295;28;20623;-94
2022/12/26 00:57:09;;;;;;;7.70;7.00;;;10.80;99.90;;;;;;5057104;28;20848;-93
2022/12/26 00:59:36;;;;;;;6.90;6.30;;;10.70;99.90;;;;;;5058311;28;20303;-96
2022/12/26 01:02:36;;;;;;;6.30;5.80;;;10.60;99.90;;;;;;5056958;28;20294;-95
2022/12/26 01:04:54;;;;;;;8.70;6.27;;;10.70;99.90;;;;;;5056999;28;20206;-94
2022/12/26 01:07:25;;;;;;;5.53;5.13;;;10.60;99.90;;;;;;5056896;28;20226;-93
2022/12/26 01:09:53;;;;;;;5.47;5.00;;;10.60;99.90;;;;;;5058060;28;20258;-93
2022/12/26 01:12:21;;;;;;;7.47;5.10;;;10.50;99.90;;;;;;5057498;28;20682;-96
2022/12/26 01:14:58;;;;;;;5.30;4.90;;;10.50;99.90;;;;;;5057205;28;20202;-93
2022/12/26 01:17:25;;;;;;;5.30;4.90;;;10.50;99.90;;;;;;5056473;28;20291;-93
2022/12/26 01:19:54;;;;;;;5.60;5.20;;;10.40;99.90;;;;;;5056224;28;20325;-94
2022/12/26 01:22:37;;;;;;;4.97;4.57;;;10.40;99.90;;;;;;5058131;28;20289;-95
2022/12/26 01:25:06;;;;;;;5.47;5.07;;;10.40;99.90;;;;;;5055980;28;20208;-95
2022/12/26 01:27:38;;;;;;;5.40;5.00;;;10.50;99.90;;;;;;5056793;28;20229;-94
2022/12/26 01:30:07;;;;;;;5.33;4.93;;;10.40;99.90;;;;;;5056813;28;20233;-94
2022/12/26 01:32:34;;;;;;;5.23;4.83;;;10.30;99.90;;;;;;5057653;28;20258;-94
2022/12/26 01:35:02;;;;;;;5.03;4.70;;;10.30;99.90;;;;;;5056650;28;20263;-95
2022/12/26 01:37:30;;;;;;;4.63;4.33;;;10.30;99.90;;;;;;5056788;28;20226;-93
2022/12/26 01:39:57;;;;;;;5.87;4.73;;;10.30;99.90;;;;;;5057484;28;20222;-95
2022/12/26 01:42:26;;;;;;;4.37;3.97;;;10.30;99.90;;;;;;5058299;28;20203;-93
2022/12/26 01:45:22;;;;;;;4.43;4.13;;;10.30;99.90;;;;;;5056241;28;20628;-92
2022/12/26 01:47:55;;;;;;;4.00;3.70;;;10.30;99.90;;;;;;5057993;28;20285;-93
2022/12/26 01:50:31;;;;;;;4.60;4.20;;;10.20;99.90;;;;;;5054488;28;20695;-94
2022/12/26 01:53:05;;;;;;;3.80;3.50;;;10.40;99.90;;;;;;5056093;28;20222;-95
2022/12/26 01:55:33;;;;;;;4.13;3.80;;;10.30;99.90;;;;;;5056492;28;20206;-95
2022/12/26 01:58:15;;;;;;;4.53;4.00;;;10.30;99.90;;;;;;5056129;28;20213;-94
2022/12/26 02:00:49;;;;;;;4.50;4.20;;;10.30;99.90;;;;;;5056129;28;20309;-94
2022/12/26 02:06:03;;;;;;;4.60;4.23;;;10.20;99.90;;;;;;5056079;28;20201;-94
2022/12/26 02:08:34;;;;;;;4.90;4.37;;;10.20;99.90;;;;;;5056259;28;20206;-94
2022/12/26 02:11:11;;;;;;;5.07;4.67;;;10.10;99.90;;;;;;5055891;28;20266;-93
2022/12/26 02:13:40;;;;;;;6.27;4.57;;;10.10;99.90;;;;;;5057095;28;20289;-95
2022/12/26 02:16:12;;;;;;;5.07;4.57;;;10.00;99.90;;;;;;5056103;28;20289;-93
2022/12/26 02:18:42;;;;;;;4.60;4.20;;;10.00;99.90;;;;;;5056288;28;20619;-92
2022/12/26 02:21:40;;;;;;;4.90;4.50;;;10.00;99.90;;;;;;5056090;28;20354;-93
2022/12/26 02:25:03;;;;;;;5.20;4.80;;;10.00;99.90;;;;;;5055682;28;20210;-93
2022/12/26 02:27:49;;;;;;;4.73;4.33;;;9.90;99.90;;;;;;5058124;28;20263;-96
2022/12/26 02:30:39;;;;;;;4.87;4.57;;;9.90;99.90;;;;;;5064277;28;20235;-94
2022/12/26 02:33:37;;;;;;;5.03;4.63;;;9.80;99.90;;;;;;5070165;28;20257;-94
2022/12/26 02:36:31;;;;;;;4.83;4.47;;;9.90;99.90;;;;;;5072145;28;20232;-95
2022/12/26 02:39:07;;;;;;;4.80;4.50;;;9.90;99.90;;;;;;5062836;28;20237;-96
2022/12/26 02:41:45;;;;;;;5.33;4.97;;;10.00;99.90;;;;;;5061817;28;20606;-96
2022/12/26 02:47:20;;;;;;;7.30;6.70;;;9.90;99.90;;;;;;5038541;28;20744;-96
2022/12/26 03:13:13;;;;;;;9.60;8.60;;;9.80;99.90;;;;;;5054431;28;20310;-95
2022/12/26 03:18:33;;;;;;;12.57;7.50;;;9.80;99.90;;;;;;5057509;28;20249;-93
2022/12/26 03:21:05;;;;;;;7.50;6.60;;;9.80;99.90;;;;;;5037273;28;20262;-93
2022/12/26 03:23:40;;;;;;;5.87;5.37;;;9.80;99.90;;;;;;5058712;28;20369;-92
2022/12/26 03:30:47;;;;;;;5.83;5.23;;;9.90;99.90;;;;;;5057015;28;20252;-96
2022/12/26 03:31:43;;;;;;;5.50;5.00;;;9.80;99.90;;;;;;5056823;28;20202;-93
2022/12/26 03:37:39;;;;;;;5.73;4.90;;;9.80;99.90;;;;;;5059160;28;20199;-94
2022/12/26 04:20:42;;;;;;;3.77;3.47;;;10.30;99.90;;;;;;5055141;28;20323;-94
2022/12/26 04:45:45;;;;;;;3.43;3.13;;;10.50;99.90;;;;;;5054551;28;20202;-93
2022/12/26 04:50:56;;;;;;;4.53;3.83;;;10.50;99.90;;;;;;5042696;28;20229;-94
2022/12/26 04:53:24;;;;;;;3.67;3.37;;;10.50;99.90;;;;;;5054527;28;20624;-94
2022/12/26 04:55:51;;;;;;;3.67;3.37;;;10.50;99.90;;;;;;5054232;28;20653;-94
2022/12/26 04:58:18;;;;;;;3.40;3.10;;;10.50;99.90;;;;;;5055387;28;20722;-93
2022/12/26 05:00:47;;;;;;;3.60;3.30;;;10.60;99.90;;;;;;5050876;28;20223;-92
2022/12/26 05:14:31;;;;;;;3.23;2.93;;;10.60;99.90;;;;;;5060219;28;20206;-94
2022/12/26 05:31:01;;;;;;;4.07;2.13;;;10.60;99.90;;;;;;5037322;28;20640;-93
2022/12/26 05:36:16;;;;;;;4.20;2.80;;;10.50;99.90;;;;;;5046960;28;20567;-92
2022/12/26 05:38:43;;;;;;;2.70;2.50;;;10.60;99.90;;;;;;5058326;28;20275;-92
2022/12/26 05:41:11;;;;;;;6.37;2.70;;;10.50;99.90;;;;;;5058472;28;20234;-93
2022/12/26 05:43:39;;;;;;;3.20;2.30;;;10.50;99.90;;;;;;5058410;28;20245;-95
2022/12/26 05:46:06;;;;;;;2.90;2.20;;;10.70;99.90;;;;;;5046824;28;20249;-95
2022/12/26 05:48:35;;;;;;;4.77;2.83;;;10.60;99.90;;;;;;5057939;28;20206;-93
2022/12/26 05:51:04;;;;;;;2.60;2.40;;;10.60;99.90;;;;;;5058427;28;20613;-92
2022/12/26 05:53:31;;;;;;;3.80;2.77;;;10.60;99.90;;;;;;5060371;28;20265;-94
2022/12/26 05:56:06;;;;;;;4.93;3.00;;;10.60;99.90;;;;;;5057423;28;20226;-93
2022/12/26 05:58:34;;;;;;;2.63;2.43;;;10.50;99.90;;;;;;5057509;28;20221;-92
2022/12/26 06:03:52;;;;;;;2.63;2.43;;;10.60;99.90;;;;;;5047725;28;20210;-94
2022/12/26 06:06:20;;;;;;;4.30;2.70;;;10.60;99.90;;;;;;5045365;28;20602;-93
2022/12/26 06:08:48;;;;;;;4.37;2.90;;;10.60;99.90;;;;;;5057822;28;20240;-93
2022/12/26 06:11:16;;;;;;;4.10;2.63;;;10.60;99.90;;;;;;5044231;28;20690;-93
2022/12/26 06:13:45;;;;;;;4.07;2.50;;;10.60;99.90;;;;;;5057225;28;20619;-92
2022/12/26 06:16:14;;;;;;;2.97;2.53;;;10.70;99.90;;;;;;5056038;28;20223;-93
2022/12/26 06:18:42;;;;;;;3.57;2.50;;;10.80;99.90;;;;;;5056836;28;20344;-93
2022/12/26 06:21:25;;;;;;;4.80;2.97;;;10.70;99.90;;;;;;5064392;28;20234;-93
2022/12/26 06:23:52;;;;;;;3.80;2.30;;;10.70;99.90;;;;;;5067972;28;20226;-91
2022/12/26 06:26:21;;;;;;;2.40;2.20;;;10.70;99.90;;;;;;5064482;28;20240;-93
2022/12/26 06:28:54;;;;;;;4.43;2.30;;;10.70;99.90;;;;;;5064448;28;20214;-94
2022/12/26 06:31:25;;;;;;;2.53;2.30;;;10.80;99.90;;;;;;5047083;28;20202;-93
2022/12/26 06:36:59;;;;;;;2.70;2.43;;;10.80;99.90;;;;;;5075979;28;20206;-94
2022/12/26 06:39:27;;;;;;;2.77;2.50;;;10.80;99.90;;;;;;5068601;28;20226;-94
2022/12/26 06:41:54;;;;;;;3.60;2.40;;;10.80;99.90;;;;;;5059305;28;20219;-95
2022/12/26 06:44:22;;;;;;;3.33;2.20;;;10.80;99.90;;;;;;5057612;28;20623;-94
2022/12/26 06:46:49;;;;;;;2.53;1.67;;;10.80;99.90;;;;;;5044175;28;20206;-94
2022/12/26 06:49:16;;;;;;;2.20;2.00;;;10.80;99.90;;;;;;5048192;28;20219;-93
2022/12/26 06:51:44;;;;;;;1.90;1.70;;;10.70;99.90;;;;;;5053734;28;20237;-93
2022/12/26 06:54:13;;;;;;;5.20;1.90;;;10.70;99.90;;;;;;5057491;28;20230;-95
2022/12/26 06:56:40;;;;;;;1.73;1.63;;;10.60;99.90;;;;;;5056997;28;20203;-93
2022/12/26 06:59:07;;;;;;;1.77;1.60;;;10.60;99.90;;;;;;5057200;28;20671;-94
2022/12/26 07:01:36;;;;;;;1.70;1.60;;;10.50;99.90;;;;;;5044207;28;20707;-95
2022/12/26 07:04:04;;;;;;;3.53;1.60;;;10.50;99.90;;;;;;5057101;28;20198;-94
2022/12/26 07:06:36;;;;;;;2.77;1.40;;;10.50;99.90;;;;;;5057541;28;20289;-94
2022/12/26 07:09:07;;;;;;;3.33;1.50;;;10.50;99.90;;;;;;5046729;28;20295;-94
2022/12/26 07:11:38;;;;;;;3.00;1.30;;;10.40;99.90;;;;;;5056568;28;20289;-94
2022/12/26 07:14:06;;;;;;;2.63;1.30;;;10.60;99.90;;;;;;5057158;28;20226;-93
2022/12/26 07:16:38;;;;;;;2.13;1.53;;;10.40;99.90;;;;;;5050929;28;20195;-94
2022/12/26 07:19:06;;;;;;;2.80;1.50;;;10.40;99.90;;;;;;5050230;28;20725;-94
2022/12/26 07:21:33;;;;;;;5.83;1.53;;;10.60;99.90;;;;;;5056845;28;20234;-93
2022/12/26 07:24:00;;;;;;;2.73;1.27;;;10.50;99.90;;;;;;5057238;28;20210;-92
2022/12/26 07:26:27;;;;;;;4.80;1.70;;;10.70;99.90;;;;;;5057679;28;20290;-93
2022/12/26 07:28:57;;;;;;;4.67;1.80;;;10.50;99.90;;;;;;5056418;28;20429;-93
2022/12/26 07:31:26;;;;;;;2.30;1.47;;;10.50;99.90;;;;;;5053764;28;20543;-93
2022/12/26 07:33:57;;;;;;;3.97;1.80;;;10.60;99.90;;;;;;5056302;28;20222;-93
2022/12/26 07:36:25;;;;;;;3.83;1.37;;;10.60;99.90;;;;;;5057027;28;20209;-94
2022/12/26 07:38:55;;;;;;;2.10;1.40;;;10.50;99.90;;;;;;5039165;28;20203;-94
2022/12/26 07:44:11;;;;;;;1.30;1.20;;;10.40;99.90;;;;;;5056517;28;20284;-92
2022/12/26 07:46:39;;;;;;;2.00;1.40;;;10.40;99.90;;;;;;5056958;28;20647;-93
2022/12/26 07:49:06;;;;;;;5.10;1.30;;;10.40;99.90;;;;;;5056232;28;20594;-94
2022/12/26 07:51:33;;;;;;;3.67;1.57;;;10.30;99.90;;;;;;5055851;28;20209;-95
2022/12/26 07:54:03;;;;;;;4.57;1.80;;;10.30;99.90;;;;;;5055036;28;20230;-93
2022/12/26 07:56:35;;;;;;;4.37;1.70;;;10.40;99.90;;;;;;5055371;28;20257;-93
2022/12/26 07:59:05;;;;;;;2.80;1.80;;;10.40;99.90;;;;;;5040124;28;20198;-93
2022/12/26 08:01:45;;;;;;;4.60;1.30;;;10.40;99.90;;;;;;5058392;28;20212;-95
2022/12/26 08:04:13;;;;;;;2.73;1.50;;;10.40;99.90;;;;;;5063604;28;20214;-94
2022/12/26 08:06:46;;;;;;;4.70;1.50;;;10.40;99.90;;;;;;5060878;28;20282;-95
2022/12/26 08:09:16;;;;;;;2.23;1.27;;;10.40;99.90;;;;;;5051856;28;20230;-96
2022/12/26 08:11:45;;;;;;;2.87;1.23;;;10.30;99.90;;;;;;5052900;28;20206;-92
2022/12/26 08:14:12;;;;;;;2.87;1.07;;;10.30;99.90;;;;;;5057964;28;20321;-94
2022/12/26 08:16:42;;;;;;;6.07;1.50;;;10.40;99.90;;;;;;5056314;28;20230;-92
2022/12/26 08:19:09;;;;;;;2.07;1.30;;;10.40;99.90;;;;;;5056305;28;20206;-93
2022/12/26 08:21:38;;;;;;;3.17;1.33;;;10.40;99.90;;;;;;5055502;28;20237;-93
2022/12/26 08:24:05;;;;;;;2.80;1.30;;;10.40;99.90;;;;;;5054865;28;20195;-93
2022/12/26 08:26:33;;;;;;;4.20;1.70;;;10.40;99.90;;;;;;5056021;28;20516;-92
2022/12/26 08:29:00;;;;;;;6.20;1.40;;;10.50;99.90;;;;;;5060836;28;20199;-94
2022/12/26 08:31:27;;;;;;;2.93;1.27;;;10.50;99.90;;;;;;5077151;28;20178;-93
2022/12/26 08:33:57;;;;;;;4.77;1.33;;;10.40;99.90;;;;;;5077475;28;20226;-93
2022/12/26 08:36:24;;;;;;;5.23;1.70;;;10.50;99.90;;;;;;5079995;28;20312;-93
2022/12/26 08:42:06;;;;;;;3.07;1.40;;;10.40;99.90;;;;;;5086768;22;20238;-94
2022/12/26 08:44:45;;;;;;;3.80;1.10;;;10.40;99.90;;;;;;5081153;28;20189;-94
2022/12/26 08:47:36;;;;;;;2.23;1.40;;;10.50;99.90;;;;;;5080466;28;20205;-94
2022/12/26 08:50:41;;;;;;;3.13;1.20;;;10.50;99.90;;;;;;5090623;28;20236;-93
2022/12/26 08:57:19;;;;;;;1.43;1.07;;;10.40;99.90;;;;;;5099650;28;20243;-93
2022/12/26 09:10:13;;;;;;;3.30;1.70;;;10.10;99.90;;;;;;5083868;28;20229;-94
2022/12/26 09:12:57;;;;;;;7.33;1.60;;;10.10;99.90;;;;;;5070941;28;20230;-92
2022/12/26 09:18:25;;;;;;;5.67;1.87;;;10.10;99.90;;;;;;5085961;28;20197;-93
2022/12/26 09:21:27;;;;;;;7.37;2.17;;;10.10;99.90;;;;;;5095020;28;20233;-95
2022/12/26 09:37:10;;;;;;;8.17;2.13;;;10.10;99.90;;;;;;5070883;28;20203;-94
2022/12/26 09:55:54;;;;;;;3.27;1.53;;;10.20;99.90;;;;;;5058310;28;20218;-92
2022/12/26 09:58:36;;;;;;;3.53;2.30;;;10.20;99.90;;;;;;5059640;28;20240;-93
2022/12/26 10:01:32;;;;;;;5.13;1.80;;;10.20;99.90;;;;;;5064940;28;20225;-93
2022/12/26 10:10:38;;;;;;;5.27;1.50;;;10.10;99.90;;;;;;5058274;28;20222;-93
2022/12/26 10:13:12;;;;;;;3.07;1.40;;;10.20;99.90;;;;;;5061390;28;20652;-93
2022/12/26 10:15:50;;;;;;;3.67;1.47;;;10.20;99.90;;;;;;5048038;28;20211;-91
2022/12/26 10:18:37;;;;;;;3.60;1.10;;;10.30;99.90;;;;;;5056433;28;20217;-94
2022/12/26 10:21:34;;;;;;;1.73;1.40;;;10.20;99.90;;;;;;5061139;28;20226;-93
2022/12/26 10:24:15;;;;;;;4.83;1.43;;;10.30;99.90;;;;;;5056101;28;20687;-93
2022/12/26 10:30:14;;;;;;;4.03;1.30;;;10.10;99.90;;;;;;5060871;28;20280;-92
2022/12/26 10:36:32;;;;;;;5.30;1.17;;;9.60;99.90;;;;;;5072225;22;20237;-82
2022/12/26 10:39:02;;;;;;;4.43;1.53;;;9.50;99.90;;;;;;5060319;28;20193;-81
2022/12/26 10:41:41;;;;;;;2.63;1.00;;;9.50;99.90;;;;;;5052325;28;20210;-82
2022/12/26 10:44:15;;;;;;;5.27;1.27;;;9.50;99.90;;;;;;5067514;28;20230;-82
2022/12/26 10:47:35;;;;;;;4.20;1.30;;;9.60;99.90;;;;;;5072767;28;20233;-83
2022/12/26 10:50:05;;;;;;;5.53;1.60;;;9.50;99.90;;;;;;5057365;28;20211;-78
2022/12/26 10:52:38;;;;;;;7.27;1.80;;;9.50;99.90;;;;;;5071080;28;20261;-78
2022/12/26 10:55:06;;;;;;;3.20;1.00;;;9.50;99.90;;;;;;5070367;28;20223;-82
2022/12/26 10:57:36;;;;;;;7.13;1.10;;;9.50;99.90;;;;;;5068415;28;20198;-82
2022/12/26 11:00:32;;;;;;;5.33;1.30;;;9.30;99.90;;;;;;5071582;28;20250;-79
2022/12/26 11:03:06;;;;;;;3.20;1.40;;;9.40;99.90;;;;;;5067475;28;20206;-82
2022/12/26 11:05:34;;;;;;;3.70;1.27;;;9.30;99.90;;;;;;5060187;28;20212;-81
2022/12/26 11:08:15;;;;;;;4.73;1.50;;;9.60;99.90;;;;;;5060751;28;20217;-77
2022/12/26 11:10:46;;;;;;;7.43;1.17;;;9.40;99.90;;;;;;5064962;28;20221;-77
2022/12/26 11:13:20;;;;;;;4.07;1.47;;;9.40;99.90;;;;;;5060135;28;20198;-78
2022/12/26 11:15:49;;;;;;;7.83;1.67;;;9.40;99.90;;;;;;5060489;28;20214;-78
2022/12/26 11:18:20;;;;;;;6.40;1.87;;;9.40;99.90;;;;;;5056687;28;20202;-77
2022/12/26 11:20:48;;;;;;;6.57;1.73;;;9.40;99.90;;;;;;5058803;28;20549;-78
2022/12/26 11:23:25;;;;;;;5.90;1.50;;;9.30;99.90;;;;;;5059718;28;20205;-79
2022/12/26 11:25:55;;;;;;;9.50;1.90;;;9.20;99.90;;;;;;5065838;28;20206;-78
2022/12/26 11:28:31;;;;;;;8.88;2.63;;;9.30;99.90;;;;;;5062703;28;20437;-78
2022/12/26 11:30:59;;;;;;;4.30;1.30;;;9.50;99.90;;;;;;5042695;28;20195;-77
2022/12/26 11:33:29;;;;;;;6.90;1.70;;;9.30;99.90;;;;;;5042279;28;20689;-77
2022/12/26 11:36:09;;;;;;;6.40;1.37;;;9.20;99.90;;;;;;5042084;28;20207;-79
2022/12/26 11:38:49;;;;;;;3.67;1.27;;;9.20;99.90;;;;;;5041406;28;20205;-78
2022/12/26 11:41:32;;;;;;;9.20;2.10;;;9.10;99.90;;;;;;5043036;28;20206;-77
2022/12/26 11:44:04;;;;;;;6.53;1.47;;;9.10;99.90;;;;;;5041707;28;20235;-78
2022/12/26 11:46:35;;;;;;;7.00;1.57;;;8.90;99.90;;;;;;5042942;28;20210;-77
2022/12/26 11:49:03;;;;;;;8.07;1.80;;;9.00;99.90;;;;;;5043257;28;20230;-77
2022/12/26 11:51:41;;;;;;;7.23;2.10;;;9.00;99.90;;;;;;5043022;28;20206;-77
2022/12/26 11:54:28;;;;;;;8.00;1.60;;;9.00;99.90;;;;;;5039793;28;20230;-77
2022/12/26 11:57:16;;;;;;;5.10;1.20;;;9.10;99.90;;;;;;5037356;28;20199;-77
2022/12/26 11:59:45;;;;;;;5.63;1.40;;;9.10;99.90;;;;;;5036961;28;20195;-81
2022/12/26 12:02:33;;;;;;;9.60;1.50;;;9.00;99.90;;;;;;5042207;28;20222;-77
2022/12/26 12:05:12;;;;;;;9.23;1.77;;;9.00;99.90;;;;;;5043572;28;20206;-81
2022/12/26 12:08:03;;;;;;;7.23;1.60;;;8.90;99.90;;;;;;5044320;28;20215;-76
2022/12/26 12:10:54;;;;;;;3.80;1.50;;;8.90;99.90;;;;;;5044928;28;20192;-79
2022/12/26 12:13:48;;;;;;;3.33;1.63;;;8.90;99.90;;;;;;5047700;28;20217;-77
2022/12/26 12:16:32;;;;;;;3.20;1.63;;;8.70;99.90;;;;;;5047727;28;20600;-77
2022/12/26 12:19:13;;;;;;;8.83;1.67;;;8.80;99.90;;;;;;5034388;28;20206;-78
2022/12/26 12:21:44;;;;;;;9.33;1.80;;;8.60;99.90;;;;;;5047998;28;20198;-77
2022/12/26 12:24:33;;;;;;;9.60;1.80;;;8.60;99.90;;;;;;5049780;28;20284;-78
2022/12/26 12:27:11;;;;;;;7.07;1.93;;;8.80;99.90;;;;;;5034557;28;20209;-77
2022/12/26 12:29:56;;;;;;;7.73;1.73;;;8.80;99.90;;;;;;5049050;28;20226;-77
2022/12/26 12:32:28;;;;;;;4.10;2.17;;;8.80;99.90;;;;;;5049804;28;20210;-80
2022/12/26 12:35:24;;;;;;;6.30;2.10;;;8.80;99.90;;;;;;5045310;28;20230;-77
2022/12/26 12:38:09;;;;;;;8.57;1.50;;;8.80;99.90;;;;;;5042219;28;20238;-78
2022/12/26 12:40:48;;;;;;;5.47;1.60;;;8.80;99.90;;;;;;5023818;28;20651;-78
2022/12/26 12:43:23;;;;;;;5.43;1.67;;;8.80;99.90;;;;;;5040263;28;20582;-78
2022/12/26 12:45:58;;;;;;;5.73;1.87;;;8.60;99.90;;;;;;5042457;28;20269;-77
2022/12/26 12:48:50;;;;;;;6.53;2.10;;;8.60;99.90;;;;;;5040000;28;20431;-77
2022/12/26 12:51:28;;;;;;;5.80;1.60;;;8.70;99.90;;;;;;5039399;28;20203;-80
2022/12/26 12:54:27;;;;;;;5.20;1.40;;;8.50;99.90;;;;;;5045772;28;20573;-82
2022/12/26 12:57:02;;;;;;;6.50;1.70;;;8.50;99.90;;;;;;5034584;28;20210;-79
2022/12/26 12:59:43;;;;;;;7.03;1.27;;;8.40;99.90;;;;;;5045507;28;20213;-78
2022/12/26 13:02:25;;;;;;;8.27;1.83;;;8.50;99.90;;;;;;5044289;28;20651;-78
2022/12/26 13:04:59;;;;;;;8.10;1.50;;;8.50;99.90;;;;;;5043205;28;20211;-78
2022/12/26 13:07:34;;;;;;;5.55;1.75;;;8.50;99.90;;;;;;5043118;28;20434;-78
2022/12/26 13:10:04;;;;;;;8.80;2.20;;;8.50;99.90;;;;;;5023897;28;20214;-78
2022/12/26 13:12:51;;;;;;;7.40;1.80;;;8.40;99.90;;;;;;5039226;28;20211;-78
2022/12/26 13:15:31;;;;;;;6.40;1.60;;;8.40;99.90;;;;;;5043027;28;20262;-78
2022/12/26 13:18:09;;;;;;;5.87;1.73;;;8.40;99.90;;;;;;5044094;28;20578;-79
2022/12/26 13:20:40;;;;;;;6.10;1.80;;;8.60;99.90;;;;;;5044163;28;20203;-77
2022/12/26 13:26:07;;;;;;;8.97;1.67;;;8.20;99.90;;;;;;5045169;28;20218;-79
2022/12/26 13:28:39;;;;;;;5.13;1.57;;;8.30;99.90;;;;;;5048364;28;20222;-78
2022/12/26 13:31:07;;;;;;;11.80;2.47;;;8.40;99.90;;;;;;5046038;28;20423;-77
2022/12/26 13:33:44;;;;;;;6.80;1.60;;;8.40;99.90;;;;;;5053229;28;20206;-77
2022/12/26 13:36:49;;;;;;;7.07;1.70;;;8.30;99.90;;;;;;5051853;28;20240;-77
2022/12/26 13:39:52;;;;;;;12.63;2.40;;;8.20;99.90;;;;;;5039306;28;20259;-82
2022/12/26 13:45:48;;;;;;;7.83;1.63;;;8.20;99.90;;;;;;5046328;28;20193;-79
2022/12/26 13:48:53;;;;;;;7.30;1.47;;;8.10;99.90;;;;;;5052190;28;20201;-78
2022/12/26 13:51:56;;;;;;;6.23;1.60;;;8.10;99.90;;;;;;5051077;28;20193;-81
2022/12/26 13:54:29;;;;;;;8.63;1.80;;;8.00;99.90;;;;;;5045620;28;20266;-78
2022/12/26 13:57:32;;;;;;;11.27;2.23;;;7.90;99.90;;;;;;5043641;28;20199;-78
2022/12/26 14:00:18;;;;;;;8.30;1.70;;;8.00;99.90;;;;;;5044093;28;20214;-78
2022/12/26 14:03:27;;;;;;;3.50;1.50;;;7.80;99.90;;;;;;5043629;28;20203;-77
2022/12/26 14:06:18;;;;;;;6.03;1.37;;;7.80;99.90;;;;;;5045909;28;20265;-80
2022/12/26 14:09:00;;;;;;;6.10;1.60;;;7.80;99.90;;;;;;5042540;28;20211;-82
2022/12/26 14:12:04;;;;;;;4.03;1.33;;;7.70;99.90;;;;;;5052941;28;20217;-79
2022/12/26 14:14:46;;;;;;;4.77;0.90;;;7.70;99.90;;;;;;5052632;28;20203;-84
2022/12/26 14:17:22;;;;;;;5.33;1.20;;;7.50;99.90;;;;;;5052733;28;20210;-78
2022/12/26 14:20:02;;;;;;;4.30;0.97;;;7.40;99.90;;;;;;5049131;28;20194;-77
2022/12/26 14:22:42;;;;;;;7.50;1.23;;;7.30;99.90;;;;;;5042758;28;20221;-77
2022/12/26 14:25:18;;;;;;;1.73;1.13;;;7.30;99.90;;;;;;5041502;28;20207;-78
2022/12/26 14:27:55;;;;;;;5.27;0.93;;;7.30;99.90;;;;;;5040935;28;20210;-80
2022/12/26 14:30:35;;;;;;;3.10;1.27;;;7.20;99.90;;;;;;5038365;28;20226;-79
2022/12/26 14:33:26;;;;;;;2.53;1.13;;;7.10;99.90;;;;;;5039342;28;20211;-79
2022/12/26 14:36:07;;;;;;;4.03;0.97;;;7.10;99.90;;;;;;5040387;28;20265;-79
2022/12/26 14:38:46;;;;;;;3.63;1.30;;;7.10;99.90;;;;;;5044793;28;20203;-80
2022/12/26 14:44:15;;;;;;;4.93;1.50;;;7.10;99.90;;;;;;5047099;28;20253;-80
2022/12/26 14:47:10;;;;;;;6.30;1.50;;;7.10;99.90;;;;;;5047507;28;20256;-81
2022/12/26 14:50:18;;;;;;;6.60;1.63;;;7.00;99.90;;;;;;5047560;28;20733;-81
2022/12/26 14:52:47;;;;;;;6.93;1.50;;;7.20;99.90;;;;;;5034566;28;20677;-81
2022/12/26 14:55:46;;;;;;;5.00;1.33;;;7.10;99.90;;;;;;5044374;28;20223;-80
2022/12/26 14:58:32;;;;;;;7.70;2.30;;;7.00;99.90;;;;;;5044519;28;20226;-81
2022/12/26 15:01:33;;;;;;;6.93;1.13;;;7.10;99.90;;;;;;5042375;28;20207;-80
2022/12/26 15:04:08;;;;;;;4.67;1.33;;;7.10;99.90;;;;;;5035774;28;20212;-81
2022/12/26 15:07:10;;;;;;;3.80;1.20;;;7.10;99.90;;;;;;5048049;28;20190;-82
2022/12/26 15:10:23;;;;;;;6.00;1.60;;;7.10;99.90;;;;;;5051040;28;20213;-82
2022/12/26 15:13:23;;;;;;;5.50;1.30;;;7.00;99.90;;;;;;5051825;28;20199;-83
2022/12/26 15:16:18;;;;;;;4.77;1.20;;;7.00;99.90;;;;;;5051627;28;20230;-84
2022/12/26 15:19:26;;;;;;;6.63;1.30;;;7.00;99.90;;;;;;5047601;28;20214;-82
2022/12/26 15:22:41;;;;;;;9.77;1.30;;;6.90;99.90;;;;;;5026082;28;20208;-80
2022/12/26 15:25:37;;;;;;;8.03;1.67;;;6.80;99.90;;;;;;5027511;28;20200;-81
2022/12/26 15:28:38;;;;;;;6.37;1.53;;;6.80;99.90;;;;;;5025794;28;20271;-81
2022/12/26 15:31:36;;;;;;;6.40;1.70;;;6.80;99.90;;;;;;5025811;28;20665;-82
2022/12/26 15:34:20;;;;;;;7.63;2.13;;;6.80;99.90;;;;;;4981151;28;20657;-81
2022/12/26 15:36:56;;;;;;;5.03;1.77;;;6.70;99.90;;;;;;5020941;28;20242;-81
2022/12/26 15:39:32;;;;;;;9.13;2.40;;;6.60;99.90;;;;;;5028720;28;20762;-81
2022/12/26 15:42:17;;;;;;;5.87;2.23;;;6.60;99.90;;;;;;5029626;28;20259;-81
2022/12/26 15:45:03;;;;;;;5.07;2.10;;;6.70;99.90;;;;;;5027564;28;20208;-81
2022/12/26 15:50:29;;;;;;;8.23;3.90;;;6.60;99.90;;;;;;5025880;28;20420;-83
2022/12/26 15:53:13;;;;;;;11.57;3.50;;;6.70;99.90;;;;;;5026743;28;20211;-81
2022/12/26 15:56:05;;;;;;;6.47;2.83;;;6.70;99.90;;;;;;5025699;28;20314;-80
2022/12/26 15:59:02;;;;;;;10.43;2.90;;;6.70;99.90;;;;;;5013081;28;20223;-81
2022/12/26 16:01:43;;;;;;;6.03;3.20;;;6.70;99.90;;;;;;5025324;28;20200;-82
2022/12/26 16:04:18;;;;;;;5.20;3.00;;;6.70;99.90;;;;;;5039163;28;20219;-81
2022/12/26 16:07:11;;;;;;;7.00;2.80;;;6.70;99.90;;;;;;5026179;28;20205;-83
2022/12/26 16:09:58;;;;;;;8.77;3.47;;;6.50;99.90;;;;;;5027777;28;20279;-81
2022/12/26 16:12:29;;;;;;;6.43;2.93;;;6.50;99.90;;;;;;5025501;28;20268;-81
2022/12/26 16:15:15;;;;;;;8.30;3.53;;;6.40;99.90;;;;;;5006912;28;20210;-81
2022/12/26 16:17:52;;;;;;;9.20;3.57;;;6.40;99.90;;;;;;5024736;28;20204;-82
2022/12/26 16:27:38;;;;;;;8.77;4.33;;;6.20;99.90;;;;;;5021745;28;20195;-85
2022/12/26 16:47:58;;;;;;;7.53;3.40;;;6.00;99.90;;;;;;5054147;28;20187;-86
2022/12/26 16:58:16;;;;;;;8.20;2.83;;;6.00;99.90;;;;;;4998243;28;20193;-83
2022/12/26 17:04:02;;;;;;;9.03;3.30;;;5.90;99.90;;;;;;5060950;28;20209;-83
2022/12/26 17:31:07;;;;;;;11.35;4.18;;;5.70;99.90;;;;;;5324349;22;20427;-84
2022/12/26 17:34:20;;;;;;;11.37;4.07;;;5.80;99.90;;;;;;5014950;28;20233;-85
2022/12/26 17:47:45;;;;;;;7.33;2.60;;;5.90;99.90;;;;;;5058903;28;20210;-84
2022/12/26 17:51:03;;;;;;;9.57;2.93;;;5.70;99.90;;;;;;5056636;28;20195;-84
2022/12/26 18:28:22;;;;;;;12.67;3.00;;;5.50;99.90;;;;;;5055437;28;20231;-85
2022/12/26 18:31:41;;;;;;;6.20;2.97;;;5.60;99.90;;;;;;5056505;28;20226;-84
2022/12/26 18:34:30;;;;;;;8.77;3.20;;;5.50;99.90;;;;;;5054754;28;20253;-85
2022/12/26 18:44:18;;;;;;;9.87;3.47;;;5.30;99.90;;;;;;4995047;28;20193;-84
2022/12/26 18:46:55;;;;;;;6.47;3.60;;;5.40;99.90;;;;;;4979997;28;20232;-81
2022/12/26 18:53:25;;;;;;;6.03;3.23;;;5.30;99.90;;;;;;4956248;28;20194;-86
2022/12/26 18:56:22;;;;;;;6.80;3.10;;;5.40;99.90;;;;;;4959266;28;20256;-85
2022/12/26 18:59:02;;;;;;;10.17;3.13;;;5.40;99.90;;;;;;4955614;29;20235;-86
2022/12/26 19:02:15;;;;;;;8.70;3.33;;;5.40;99.90;;;;;;4957870;29;20251;-85
2022/12/26 19:12:33;;;;;;;5.10;3.30;;;5.30;99.90;;;;;;4979383;28;20198;-85
2022/12/26 19:25:20;;;;;;;8.47;3.23;;;5.30;99.90;;;;;;5042530;28;20222;-93
2022/12/26 19:27:51;;;;;;;8.70;3.83;;;5.30;99.90;;;;;;5043277;28;20234;-94
2022/12/26 19:39:03;;;;;;;6.20;2.87;;;5.70;99.90;;;;;;5026662;28;20240;-91
2022/12/26 19:41:41;;;;;;;4.67;2.40;;;5.40;99.90;;;;;;5023629;28;20203;-93
2022/12/26 19:44:12;;;;;;;11.57;3.00;;;5.50;99.90;;;;;;5029998;28;20207;-95
2022/12/26 19:46:47;;;;;;;10.27;3.23;;;5.50;99.90;;;;;;5043803;28;20622;-93